Terminal Aerodrome Forecast
Issued by NWS Wichita, KS

Home | Current Version | Previous Version | Graphics & Text | Print | Product List | Glossary On
Versions: 1 2 3 4 5 6 7 8 9 10 11 12 13 14 15 16 17 18 19 20 21 22 23 24 25 26 27 28 29
000
FTUS43 KICT 201141
TAFICT
TAF
KICT 201141Z 2012/2112 35017G26KT 2SM FZRAPL VCTS OVC005CB
      TEMPO 2012/2014 4SM -FZRAPL OVC007
     FM201400 34017KT 5SM -FZRA OVC008=

USA.gov is the U.S. government's official web portal to all federal, state and local government web resources and services.